createdAt,value
2022-11-12T00:01:41.597Z,4.2
2022-11-12T00:03:42.834Z,4.17
2022-11-12T00:05:44.827Z,4.12
2022-11-12T00:07:46.614Z,4.15
2022-11-12T00:09:48.145Z,4.18
2022-11-12T00:11:49.255Z,4.23
2022-11-12T00:13:51.170Z,4.23
2022-11-12T00:15:52.402Z,4.24
2022-11-12T00:17:53.584Z,4.07
2022-11-12T00:19:54.998Z,4.04
2022-11-12T00:21:56.931Z,3.94
2022-11-12T00:23:58.366Z,3.99
2022-11-12T00:25:59.669Z,3.88
2022-11-12T00:28:01.610Z,3.85
2022-11-12T00:30:02.749Z,3.76
2022-11-12T00:32:04.344Z,3.66
2022-11-12T00:34:06.266Z,3.59
2022-11-12T00:36:07.587Z,3.49
2022-11-12T00:38:08.969Z,3.38
2022-11-12T00:40:10.435Z,3.33
2022-11-12T00:42:11.574Z,3.23
2022-11-12T00:44:12.853Z,3.2
2022-11-12T00:46:14.096Z,3.14
2022-11-12T00:48:15.946Z,3.14
2022-11-12T00:50:17.482Z,3.14
2022-11-12T00:52:18.612Z,3.1
2022-11-12T00:54:20.594Z,3.11
2022-11-12T00:56:22.301Z,3.12
2022-11-12T00:58:23.831Z,3.12
2022-11-12T01:00:25.582Z,3.11
2022-11-12T01:02:27.385Z,3.11
2022-11-12T01:04:28.846Z,3.11
2022-11-12T01:06:30.790Z,3.1
2022-11-12T01:08:32.104Z,3.12
2022-11-12T01:10:33.199Z,3.14
2022-11-12T01:12:35.100Z,3.11
2022-11-12T01:14:36.736Z,3.16
2022-11-12T01:16:37.856Z,3.12
2022-11-12T01:18:39.161Z,3.11
2022-11-12T01:20:40.724Z,3.14
2022-11-12T01:22:41.792Z,3.14
2022-11-12T01:24:43.357Z,3.22
2022-11-12T01:26:45.259Z,3.23
2022-11-12T01:28:47.052Z,3.22
2022-11-12T01:30:48.282Z,3.25
2022-11-12T01:32:50.023Z,3.23
2022-11-12T01:36:53.435Z,3.15
2022-11-12T01:38:54.852Z,3.14
2022-11-12T01:40:56.571Z,3.1
2022-11-12T01:42:58.179Z,3.06
2022-11-12T01:44:59.388Z,3.06
2022-11-12T01:47:00.434Z,3.02
2022-11-12T01:49:02.115Z,2.94
2022-11-12T01:51:03.882Z,2.91
2022-11-12T01:53:05.873Z,2.92
2022-11-12T01:55:06.862Z,2.89
2022-11-12T01:57:08.017Z,2.88
2022-11-12T01:59:09.122Z,2.86
2022-11-12T02:01:10.167Z,2.93
2022-11-12T02:03:12.077Z,2.98
2022-11-12T02:05:13.971Z,3.02
2022-11-12T02:07:15.590Z,3.02
2022-11-12T02:09:16.556Z,2.99
2022-11-12T02:11:18.357Z,2.92
2022-11-12T02:13:20.342Z,2.92
2022-11-12T02:15:21.395Z,2.95
2022-11-12T02:17:23.019Z,2.88
2022-11-12T02:19:25.012Z,2.88
2022-11-12T02:21:26.843Z,2.9
2022-11-12T02:23:28.352Z,2.8
2022-11-12T02:25:29.567Z,2.8
2022-11-12T02:27:31.496Z,2.78
2022-11-12T02:29:33.307Z,2.77
2022-11-12T02:31:34.687Z,2.74
2022-11-12T02:33:36.190Z,2.75
2022-11-12T02:35:37.546Z,2.64
2022-11-12T02:37:38.721Z,2.51
2022-11-12T02:39:40.140Z,2.42
2022-11-12T02:41:41.516Z,2.45
2022-11-12T02:43:43.240Z,2.35
2022-11-12T02:45:45.145Z,2.33
2022-11-12T02:47:47.015Z,2.33
2022-11-12T02:49:48.625Z,2.32
2022-11-12T02:51:50.549Z,2.24
2022-11-12T02:53:51.699Z,2.28
2022-11-12T02:55:52.830Z,2.21
2022-11-12T02:57:54.166Z,2.22
2022-11-12T02:59:55.569Z,2.17
2022-11-12T03:00:39.488Z,2.16
2022-11-12T03:02:40.939Z,2.12
2022-11-12T03:04:45.446Z,2.12
2022-11-12T03:06:44.029Z,2.1
2022-11-12T03:08:45.367Z,2.01
2022-11-12T03:10:46.424Z,2.06
2022-11-12T03:12:47.519Z,2.06
2022-11-12T03:14:49.147Z,2.08
2022-11-12T03:16:50.859Z,2.09
2022-11-12T03:18:52.749Z,2.08
2022-11-12T03:20:53.887Z,2.05
2022-11-12T03:22:55.437Z,2.04
2022-11-12T03:24:56.735Z,1.99
2022-11-12T03:26:58.578Z,2.01
2022-11-12T03:28:59.805Z,2.04
2022-11-12T03:31:00.780Z,2.04
2022-11-12T03:33:02.687Z,2.11
2022-11-12T03:35:04.678Z,2.09
2022-11-12T03:37:06.598Z,2.1
2022-11-12T03:39:08.504Z,2.11
2022-11-12T03:41:10.303Z,2.16
2022-11-12T03:43:12.266Z,2.11
2022-11-12T03:45:13.971Z,2.13
2022-11-12T03:47:16.145Z,2.05
2022-11-12T03:49:16.940Z,2.04
2022-11-12T03:51:18.545Z,2.04
2022-11-12T03:53:20.144Z,2.03
2022-11-12T03:55:21.260Z,2.03
2022-11-12T03:57:22.685Z,2.09
2022-11-12T03:59:24.643Z,2.07
2022-11-12T04:01:26.043Z,2.09
2022-11-12T04:03:27.339Z,2.1
2022-11-12T04:05:28.979Z,2.05
2022-11-12T04:07:30.532Z,1.98
2022-11-12T04:09:32.560Z,1.88
2022-11-12T04:11:34.441Z,1.89
2022-11-12T04:13:36.195Z,1.86
2022-11-12T04:15:37.251Z,1.84
2022-11-12T04:17:39.106Z,1.8
2022-11-12T04:19:40.919Z,1.82
2022-11-12T04:21:42.022Z,1.87
2022-11-12T04:23:43.365Z,1.88
2022-11-12T04:25:44.494Z,1.87
2022-11-12T04:27:46.489Z,1.89
2022-11-12T04:29:48.475Z,1.86
2022-11-12T04:31:50.194Z,1.89
2022-11-12T04:33:51.329Z,1.89
2022-11-12T04:35:52.903Z,1.89
2022-11-12T04:37:54.549Z,1.78
2022-11-12T04:39:56.225Z,1.74
2022-11-12T04:41:58.239Z,1.71
2022-11-12T04:43:59.298Z,1.71
2022-11-12T04:46:00.762Z,1.66
2022-11-12T04:48:02.777Z,1.66
2022-11-12T04:50:03.991Z,1.65
2022-11-12T04:52:05.129Z,1.7
2022-11-12T04:54:07.136Z,1.67
2022-11-12T04:56:08.365Z,1.71
2022-11-12T04:58:09.508Z,1.68
2022-11-12T05:00:11.397Z,1.71
2022-11-12T05:02:12.438Z,1.73
2022-11-12T05:04:13.934Z,1.71
2022-11-12T05:06:15.345Z,1.67
2022-11-12T05:08:16.435Z,1.66
2022-11-12T05:10:17.567Z,1.65
2022-11-12T05:12:18.669Z,1.72
2022-11-12T05:14:20.117Z,1.77
2022-11-12T05:16:21.969Z,1.75
2022-11-12T05:18:24.048Z,1.74
2022-11-12T05:20:25.699Z,1.74
2022-11-12T05:22:43.096Z,1.77
2022-11-12T05:24:41.360Z,1.77
2022-11-12T05:26:31.034Z,1.73
2022-11-12T05:28:32.574Z,1.72
2022-11-12T05:30:33.630Z,1.69
2022-11-12T05:32:35.373Z,1.65
2022-11-12T05:34:36.625Z,1.59
2022-11-12T05:36:37.687Z,1.59
2022-11-12T05:38:39.094Z,1.54
2022-11-12T05:40:40.731Z,1.51
2022-11-12T05:42:42.334Z,1.57
2022-11-12T05:44:43.912Z,1.56
2022-11-12T05:46:45.542Z,1.58
2022-11-12T05:48:47.337Z,1.53
2022-11-12T05:51:06.553Z,1.52
2022-11-12T05:52:50.750Z,1.51
2022-11-12T05:54:52.160Z,1.52
2022-11-12T05:56:53.561Z,1.51
2022-11-12T05:58:55.165Z,1.51
2022-11-12T06:00:56.572Z,1.51
2022-11-12T06:02:58.085Z,1.53
2022-11-12T06:04:59.260Z,1.63
2022-11-12T06:07:01.074Z,1.68
2022-11-12T06:09:02.330Z,1.74
2022-11-12T06:11:04.083Z,1.78
2022-11-12T06:13:05.872Z,1.79
2022-11-12T06:15:07.749Z,1.81
2022-11-12T06:17:08.833Z,1.82
2022-11-12T06:19:10.483Z,1.83
2022-11-12T06:21:12.251Z,1.82
2022-11-12T06:23:13.617Z,1.8
2022-11-12T06:25:14.900Z,1.78
2022-11-12T06:27:16.140Z,1.76
2022-11-12T06:29:17.441Z,1.75
2022-11-12T06:31:18.997Z,1.73
2022-11-12T06:33:20.967Z,1.77
2022-11-12T06:35:22.899Z,1.8
2022-11-12T06:37:24.396Z,1.78
2022-11-12T06:39:25.910Z,1.76
2022-11-12T06:41:27.352Z,1.78
2022-11-12T06:45:30.245Z,1.8
2022-11-12T06:47:31.915Z,1.81
2022-11-12T06:49:33.124Z,1.83
2022-11-12T06:51:34.806Z,1.8
2022-11-12T06:53:36.474Z,1.77
2022-11-12T06:55:37.943Z,1.79
2022-11-12T06:57:39.536Z,1.78
2022-11-12T06:59:41.490Z,1.75
2022-11-12T07:01:42.628Z,1.76
2022-11-12T07:03:43.948Z,1.81
2022-11-12T07:05:45.487Z,1.79
2022-11-12T07:07:47.228Z,1.73
2022-11-12T07:09:48.700Z,1.66
2022-11-12T07:11:50.626Z,1.68
2022-11-12T07:13:52.310Z,1.57
2022-11-12T07:15:53.500Z,1.5
2022-11-12T07:17:55.437Z,1.49
2022-11-12T07:20:00.805Z,1.49
2022-11-12T07:21:58.994Z,1.49
2022-11-12T07:24:00.179Z,1.48
2022-11-12T07:28:03.218Z,1.65
2022-11-12T07:30:04.905Z,1.7
2022-11-12T07:32:06.199Z,1.77
2022-11-12T07:34:08.037Z,1.76
2022-11-12T07:36:09.709Z,1.84
2022-11-12T07:38:11.201Z,1.87
2022-11-12T07:40:12.847Z,1.95
2022-11-12T07:42:14.645Z,2.05
2022-11-12T07:44:16.497Z,2.14
2022-11-12T07:46:17.831Z,2.17
2022-11-12T07:48:19.679Z,2.21
2022-11-12T07:50:21.269Z,2.24
2022-11-12T07:52:22.236Z,2.25
2022-11-12T07:54:24.113Z,2.31
2022-11-12T07:56:25.531Z,2.13
2022-11-12T07:58:27.131Z,2.26
2022-11-12T08:00:28.770Z,2.35
2022-11-12T08:02:29.816Z,2.45
2022-11-12T08:04:31.524Z,2.57
2022-11-12T08:06:33.321Z,2.54
2022-11-12T08:10:36.678Z,2.64
2022-11-12T08:12:38.173Z,2.55
2022-11-12T08:14:39.828Z,2.58
2022-11-12T08:16:41.329Z,2.76
2022-11-12T08:18:42.400Z,2.84
2022-11-12T08:20:44.207Z,2.92
2022-11-12T08:22:49.162Z,2.74
2022-11-12T08:24:46.564Z,2.77
2022-11-12T08:26:48.537Z,2.79
2022-11-12T08:28:49.587Z,2.8
2022-11-12T08:30:51.233Z,2.87
2022-11-12T08:32:52.703Z,3.06
2022-11-12T08:34:54.183Z,3.18
2022-11-12T08:36:55.963Z,3.14
2022-11-12T08:38:57.376Z,3.18
2022-11-12T08:40:58.994Z,3.3
2022-11-12T08:43:00.263Z,3.32
2022-11-12T08:45:01.792Z,3.31
2022-11-12T08:47:03.497Z,3.31
2022-11-12T08:49:04.474Z,3.21
2022-11-12T08:51:06.192Z,3.34
2022-11-12T08:53:07.959Z,3.4
2022-11-12T08:55:09.417Z,3.25
2022-11-12T08:57:11.167Z,3.14
2022-11-12T08:59:13.082Z,3.22
2022-11-12T09:01:14.850Z,3.45
2022-11-12T09:03:16.538Z,3.35
2022-11-12T09:05:18.416Z,3.64
2022-11-12T09:07:43.782Z,3.7
2022-11-12T09:09:21.434Z,3.71
2022-11-12T09:11:23.221Z,3.8
2022-11-12T09:13:24.784Z,3.77
2022-11-12T09:15:37.756Z,3.94
2022-11-12T09:17:27.558Z,3.88
2022-11-12T09:19:29.534Z,3.73
2022-11-12T09:21:30.545Z,3.43
2022-11-12T09:23:31.865Z,3.77
2022-11-12T09:25:33.557Z,3.78
2022-11-12T09:27:35.371Z,3.66
2022-11-12T09:29:36.605Z,3.84
2022-11-12T09:31:37.939Z,3.89
2022-11-12T09:33:38.956Z,3.77
2022-11-12T09:35:40.667Z,3.92
2022-11-12T09:37:41.970Z,3.89
2022-11-12T09:39:43.601Z,3.97
2022-11-12T09:41:44.944Z,4.13
2022-11-12T09:43:46.866Z,4.08
2022-11-12T09:46:00.232Z,4.25
2022-11-12T09:46:32.185Z,4.33
2022-11-12T09:48:33.343Z,4.26
2022-11-12T09:50:34.726Z,4.28
2022-11-12T09:52:36.069Z,4.48
2022-11-12T09:54:37.831Z,4.52
2022-11-12T09:56:39.680Z,4.58
2022-11-12T09:58:41.298Z,4.61
2022-11-12T10:00:45.050Z,4.56
2022-11-12T10:02:43.874Z,4.74
2022-11-12T10:04:45.472Z,4.94
2022-11-12T10:06:46.773Z,5.04
2022-11-12T10:08:48.097Z,4.95
2022-11-12T10:10:49.799Z,5.09
2022-11-12T10:12:51.225Z,5.18
2022-11-12T10:14:52.904Z,5.06
2022-11-12T10:16:54.070Z,5.23
2022-11-12T10:18:55.567Z,5.37
2022-11-12T10:20:56.991Z,5.2
2022-11-12T10:22:58.508Z,5.4
2022-11-12T10:25:00.245Z,5.15
2022-11-12T10:27:02.167Z,5.29
2022-11-12T10:29:03.532Z,5.56
2022-11-12T10:31:05.122Z,5.77
2022-11-12T10:33:06.532Z,5.82
2022-11-12T10:35:08.275Z,6.09
2022-11-12T10:37:09.503Z,5.71
2022-11-12T10:39:10.757Z,5.8
2022-11-12T10:41:12.104Z,5.86
2022-11-12T10:43:13.529Z,5.75
2022-11-12T10:45:14.928Z,6.05
2022-11-12T10:47:16.677Z,6.28
2022-11-12T10:49:18.272Z,6.28
2022-11-12T10:51:20.044Z,6.01
2022-11-12T10:53:21.255Z,6.19
2022-11-12T10:55:23.372Z,6.08
2022-11-12T10:57:25.098Z,6.12
2022-11-12T10:59:26.617Z,6.37
2022-11-12T11:01:30.975Z,6.45
2022-11-12T11:03:29.768Z,6.61
2022-11-12T11:05:31.237Z,6.6
2022-11-12T11:07:32.515Z,6.76
2022-11-12T11:09:34.033Z,7.16
2022-11-12T11:11:35.014Z,7.07
2022-11-12T11:13:36.617Z,7.18
2022-11-12T11:15:38.346Z,7.19
2022-11-12T11:17:39.432Z,7.46
2022-11-12T11:19:40.996Z,7.49
2022-11-12T11:21:42.423Z,7.47
2022-11-12T11:23:42.864Z,7.46
2022-11-12T11:25:44.565Z,7.6
2022-11-12T11:27:46.324Z,7.63
2022-11-12T11:29:47.751Z,7.61
2022-11-12T11:31:49.412Z,7.72
2022-11-12T11:33:50.578Z,7.76
2022-11-12T11:35:51.807Z,8.09
2022-11-12T11:37:57.327Z,8.25
2022-11-12T11:39:53.861Z,8.41
2022-11-12T11:41:55.387Z,8.73
2022-11-12T11:43:56.320Z,8.93
2022-11-12T11:45:57.948Z,8.91
2022-11-12T11:48:01.874Z,9
2022-11-12T11:50:00.456Z,9
2022-11-12T11:52:01.947Z,9.22
2022-11-12T11:54:03.707Z,9.23
2022-11-12T11:56:05.544Z,9.18
2022-11-12T11:58:06.461Z,9.47
2022-11-12T12:00:07.589Z,9.36
2022-11-12T12:02:08.911Z,9.23
2022-11-12T12:04:10.545Z,9.55
2022-11-12T12:06:12.198Z,9.66
2022-11-12T12:08:13.255Z,9.81
2022-11-12T12:10:14.965Z,10.04
2022-11-12T12:12:16.624Z,10.31
2022-11-12T12:14:17.673Z,10.27
2022-11-12T12:16:19.446Z,10.39
2022-11-12T12:18:20.626Z,10.58
2022-11-12T12:20:22.339Z,10.59
2022-11-12T12:22:23.361Z,10.59
2022-11-12T12:24:24.377Z,10.59
2022-11-12T12:26:25.436Z,10.5
2022-11-12T12:28:26.738Z,10.18
2022-11-12T12:30:27.527Z,10.24
2022-11-12T12:32:29.388Z,10.55
2022-11-12T12:34:30.696Z,10.44
2022-11-12T12:36:31.754Z,10.54
2022-11-12T12:38:32.612Z,10.47
2022-11-12T12:40:34.375Z,10.55
2022-11-12T12:42:35.557Z,10.83
2022-11-12T12:44:36.401Z,10.94
2022-11-12T12:46:37.677Z,11.17
2022-11-12T12:48:38.601Z,11.26
2022-11-12T12:50:40.405Z,10.72
2022-11-12T12:52:41.988Z,10.73
2022-11-12T12:54:43.786Z,10.78
2022-11-12T12:56:44.879Z,10.33
2022-11-12T12:58:46.375Z,10.25
2022-11-12T13:00:48.035Z,10.33
2022-11-12T13:02:49.551Z,10.47
2022-11-12T13:04:50.763Z,10.52
2022-11-12T13:06:52.491Z,10.68
2022-11-12T13:08:53.412Z,10.81
2022-11-12T13:10:54.630Z,10.88
2022-11-12T13:12:55.795Z,10.78
2022-11-12T13:14:57.768Z,10.79
2022-11-12T13:16:59.332Z,10.69
2022-11-12T13:19:00.967Z,10.76
2022-11-12T13:21:02.232Z,10.83
2022-11-12T13:23:03.288Z,10.8
2022-11-12T13:25:04.980Z,10.88
2022-11-12T13:27:06.112Z,10.82
2022-11-12T13:29:07.510Z,10.76
2022-11-12T13:31:08.624Z,10.63
2022-11-12T13:35:11.385Z,10.35
2022-11-12T13:37:12.297Z,10.24
2022-11-12T13:39:13.992Z,10.27
2022-11-12T13:41:15.324Z,10.33
2022-11-12T13:43:16.572Z,10.43
2022-11-12T13:45:17.845Z,10.43
2022-11-12T13:47:19.432Z,10.42
2022-11-12T13:49:21.288Z,10.48
2022-11-12T13:51:22.436Z,10.4
2022-11-12T13:53:23.343Z,10.22
2022-11-12T13:55:24.789Z,10.25
2022-11-12T13:57:26.457Z,10.09
2022-11-12T13:59:28.352Z,10.18
2022-11-12T14:01:29.913Z,10.17
2022-11-12T14:03:31.232Z,10.08
2022-11-12T14:05:32.321Z,9.96
2022-11-12T14:07:33.294Z,9.95
2022-11-12T14:09:35.131Z,9.96
2022-11-12T14:11:36.444Z,9.94
2022-11-12T14:13:37.960Z,9.85
2022-11-12T14:15:39.074Z,9.87
2022-11-12T14:17:40.957Z,9.85
2022-11-12T14:19:42.755Z,9.78
2022-11-12T14:21:44.159Z,9.78
2022-11-12T14:23:45.501Z,9.64
2022-11-12T14:25:47.264Z,9.48
2022-11-12T14:27:48.453Z,9.48
2022-11-12T14:29:50.300Z,9.36
2022-11-12T14:31:52.055Z,9.28
2022-11-12T14:33:53.626Z,9.2
2022-11-12T14:35:55.345Z,9.12
2022-11-12T14:37:56.506Z,9.05
2022-11-12T14:39:58.151Z,9.04
2022-11-12T14:41:59.596Z,8.9
2022-11-12T14:44:12.516Z,8.84
2022-11-12T14:46:02.871Z,8.78
2022-11-12T14:48:04.374Z,8.75
2022-11-12T14:50:06.284Z,8.73
2022-11-12T14:52:08.015Z,8.61
2022-11-12T14:54:08.996Z,8.52
2022-11-12T14:56:10.806Z,8.45
2022-11-12T14:58:11.866Z,8.38
2022-11-12T15:00:12.811Z,8.32
2022-11-12T15:02:30.369Z,8.27
2022-11-12T15:04:15.477Z,8.2
2022-11-12T15:06:16.696Z,8.09
2022-11-12T15:08:18.366Z,8.05
2022-11-12T15:10:19.776Z,7.97
2022-11-12T15:12:20.756Z,7.94
2022-11-12T15:14:22.672Z,7.9
2022-11-12T15:16:24.409Z,7.81
2022-11-12T15:18:25.966Z,7.75
2022-11-12T15:20:27.237Z,7.7
2022-11-12T15:22:28.792Z,7.62
2022-11-12T15:24:29.964Z,7.59
2022-11-12T15:26:31.681Z,7.5
2022-11-12T15:28:32.877Z,7.43
2022-11-12T15:30:34.206Z,7.37
2022-11-12T15:32:36.036Z,7.31
2022-11-12T15:34:37.551Z,7.26
2022-11-12T15:36:39.246Z,7.2
2022-11-12T15:38:41.084Z,7.15
2022-11-12T15:40:42.737Z,7.09
2022-11-12T15:42:44.660Z,7.06
2022-11-12T15:44:46.134Z,7.01
2022-11-12T15:46:47.782Z,7.02
2022-11-12T15:48:54.627Z,7.05
2022-11-12T15:50:51.455Z,7.04
2022-11-12T15:52:52.888Z,7.05
2022-11-12T15:54:54.684Z,7.12
2022-11-12T15:56:55.676Z,7.09
2022-11-12T15:59:05.442Z,7.16
2022-11-12T16:00:59.265Z,7.15
2022-11-12T16:03:00.536Z,7.12
2022-11-12T16:05:01.760Z,7.15
2022-11-12T16:07:02.868Z,7.16
2022-11-12T16:09:04.657Z,7.15
2022-11-12T16:11:05.936Z,7.14
2022-11-12T16:13:07.238Z,7.13
2022-11-12T16:15:08.600Z,7.11
2022-11-12T16:17:10.197Z,7.13
2022-11-12T16:19:11.854Z,7.13
2022-11-12T16:21:18.063Z,7.08
2022-11-12T16:23:15.111Z,7.05
2022-11-12T16:25:16.549Z,7.1
2022-11-12T16:27:18.218Z,7.06
2022-11-12T16:29:20.004Z,7.06
2022-11-12T16:31:21.675Z,7.06
2022-11-12T16:34:06.740Z,7.03
2022-11-12T16:36:08.443Z,7.03
2022-11-12T16:38:09.518Z,7
2022-11-12T16:40:10.813Z,7
2022-11-12T16:42:12.580Z,6.96
2022-11-12T16:44:13.571Z,6.95
2022-11-12T16:46:14.863Z,6.94
2022-11-12T16:48:16.052Z,6.9
2022-11-12T16:50:17.827Z,6.91
2022-11-12T16:52:19.249Z,6.89
2022-11-12T16:54:20.423Z,6.87
2022-11-12T16:56:22.136Z,6.83
2022-11-12T16:58:23.377Z,6.83
2022-11-12T17:00:24.655Z,6.85
2022-11-12T17:02:26.065Z,6.81
2022-11-12T17:04:27.961Z,6.81
2022-11-12T17:06:29.758Z,6.83
2022-11-12T17:08:33.830Z,6.8
2022-11-12T17:10:32.537Z,6.79
2022-11-12T17:12:33.546Z,6.8
2022-11-12T17:14:34.904Z,6.75
2022-11-12T17:16:35.999Z,6.73
2022-11-12T17:18:37.435Z,6.74
2022-11-12T17:20:38.513Z,6.68
2022-11-12T17:22:39.613Z,6.7
2022-11-12T17:24:40.944Z,6.65
2022-11-12T17:26:42.813Z,6.65
2022-11-12T17:28:44.564Z,6.62
2022-11-12T17:30:45.928Z,6.62
2022-11-12T17:32:47.397Z,6.59
2022-11-12T17:34:49.298Z,6.56
2022-11-12T17:36:50.912Z,6.5
2022-11-12T17:38:51.929Z,6.51
2022-11-12T17:40:53.178Z,6.41
2022-11-12T17:42:54.608Z,6.39
2022-11-12T17:44:56.293Z,6.35
2022-11-12T17:46:57.673Z,6.36
2022-11-12T17:48:59.606Z,6.36
2022-11-12T17:51:01.242Z,6.28
2022-11-12T17:53:02.703Z,6.22
2022-11-12T17:55:04.234Z,6.2
2022-11-12T17:57:05.635Z,6.15
2022-11-12T17:59:07.280Z,6.12
2022-11-12T18:01:08.592Z,6.11
2022-11-12T18:03:10.216Z,6.04
2022-11-12T18:05:11.857Z,6.04
2022-11-12T18:07:13.652Z,6.08
2022-11-12T18:09:14.573Z,6.09
2022-11-12T18:11:15.613Z,6.07
2022-11-12T18:13:16.753Z,6.03
2022-11-12T18:15:17.971Z,5.97
2022-11-12T18:17:19.393Z,5.84
2022-11-12T18:19:20.803Z,5.88
2022-11-12T18:21:22.173Z,5.8
2022-11-12T18:23:24.153Z,5.78
2022-11-12T18:25:25.416Z,5.75
2022-11-12T18:27:26.828Z,5.76
2022-11-12T18:29:28.780Z,5.72
2022-11-12T18:31:30.409Z,5.73
2022-11-12T18:33:32.239Z,5.7
2022-11-12T18:35:33.254Z,5.64
2022-11-12T18:37:34.353Z,5.61
2022-11-12T18:39:35.694Z,5.62
2022-11-12T18:41:37.350Z,5.62
2022-11-12T18:43:38.436Z,5.64
2022-11-12T18:45:39.963Z,5.65
2022-11-12T18:47:41.383Z,5.69
2022-11-12T18:49:42.388Z,5.66
2022-11-12T18:51:44.231Z,5.58
2022-11-12T18:53:46.219Z,5.55
2022-11-12T18:55:47.553Z,5.53
2022-11-12T18:57:49.393Z,5.59
2022-11-12T18:59:50.714Z,5.6
2022-11-12T19:01:52.269Z,5.56
2022-11-12T19:03:53.423Z,5.54
2022-11-12T19:05:54.770Z,5.53
2022-11-12T19:07:56.246Z,5.55
2022-11-12T19:09:57.263Z,5.56
2022-11-12T19:11:59.115Z,5.57
2022-11-12T19:14:00.108Z,5.54
2022-11-12T19:16:01.128Z,5.52
2022-11-12T19:18:02.611Z,5.53
2022-11-12T19:20:04.072Z,5.55
2022-11-12T19:22:05.033Z,5.56
2022-11-12T19:24:06.958Z,5.56
2022-11-12T19:26:08.648Z,5.57
2022-11-12T19:28:09.738Z,5.56
2022-11-12T19:30:11.173Z,5.54
2022-11-12T19:32:13.038Z,5.51
2022-11-12T19:34:14.880Z,5.51
2022-11-12T19:36:16.441Z,5.5
2022-11-12T19:38:17.466Z,5.47
2022-11-12T19:40:18.767Z,5.47
2022-11-12T19:42:20.318Z,5.5
2022-11-12T19:44:21.813Z,5.5
2022-11-12T19:46:23.322Z,5.51
2022-11-12T19:48:24.633Z,5.51
2022-11-12T19:50:35.761Z,5.5
2022-11-12T19:52:27.073Z,5.43
2022-11-12T19:54:28.659Z,5.33
2022-11-12T19:56:30.249Z,5.32
2022-11-12T19:58:31.892Z,5.32
2022-11-12T20:00:33.660Z,5.34
2022-11-12T20:02:35.487Z,5.28
2022-11-12T20:04:37.072Z,5.24
2022-11-12T20:06:38.451Z,5.23
2022-11-12T20:08:40.027Z,5.26
2022-11-12T20:10:41.947Z,5.21
2022-11-12T20:14:44.851Z,5.24
2022-11-12T20:16:46.001Z,5.22
2022-11-12T20:18:50.780Z,5.11
2022-11-12T20:20:48.552Z,5.03
2022-11-12T20:22:49.695Z,5.06
2022-11-12T20:24:51.045Z,5.1
2022-11-12T20:26:52.742Z,5.02
2022-11-12T20:28:54.275Z,5.02
2022-11-12T20:30:55.428Z,5.01
2022-11-12T20:32:56.582Z,4.96
2022-11-12T20:34:57.633Z,4.95
2022-11-12T20:36:58.896Z,4.97
2022-11-12T20:39:00.196Z,4.92
2022-11-12T20:41:01.848Z,4.91
2022-11-12T20:43:03.726Z,4.84
2022-11-12T20:45:04.739Z,4.91
2022-11-12T20:47:06.291Z,4.91
2022-11-12T20:49:08.214Z,4.95
2022-11-12T20:51:23.023Z,4.91
2022-11-12T20:53:11.096Z,4.82
2022-11-12T20:55:13.055Z,4.8
2022-11-12T20:57:14.072Z,4.66
2022-11-12T20:59:15.905Z,4.58
2022-11-12T21:01:17.636Z,4.57
2022-11-12T21:03:18.796Z,4.53
2022-11-12T21:05:20.354Z,4.41
2022-11-12T21:07:21.385Z,4.4
2022-11-12T21:09:23.326Z,4.38
2022-11-12T21:11:24.445Z,4.37
2022-11-12T21:13:26.325Z,4.37
2022-11-12T21:15:27.641Z,4.33
2022-11-12T21:17:29.308Z,4.32
2022-11-12T21:19:30.476Z,4.28
2022-11-12T21:21:32.451Z,4.29
2022-11-12T21:23:33.740Z,4.32
2022-11-12T21:25:35.471Z,4.3
2022-11-12T21:27:37.164Z,4.3
2022-11-12T21:29:38.882Z,4.29
2022-11-12T21:31:39.961Z,4.29
2022-11-12T21:33:41.557Z,4.31
2022-11-12T21:35:42.812Z,4.31
2022-11-12T21:37:44.169Z,4.28
2022-11-12T21:39:46.136Z,4.28
2022-11-12T21:41:47.414Z,4.25
2022-11-12T21:43:49.108Z,4.17
2022-11-12T21:45:50.566Z,4.27
2022-11-12T21:47:51.933Z,4.24
2022-11-12T21:49:53.328Z,4.2
2022-11-12T21:51:54.802Z,4.21
2022-11-12T21:53:56.244Z,4.22
2022-11-12T21:55:57.676Z,4.18
2022-11-12T21:57:58.783Z,4.2
2022-11-12T22:00:13.630Z,4.13
2022-11-12T22:02:01.753Z,4.15
2022-11-12T22:04:02.974Z,4.15
2022-11-12T22:06:04.796Z,4.17
2022-11-12T22:08:06.607Z,4.09
2022-11-12T22:10:07.972Z,4.15
2022-11-12T22:12:09.895Z,4.07
2022-11-12T22:14:11.296Z,4.08
2022-11-12T22:16:12.357Z,4.1
2022-11-12T22:18:14.207Z,4.06
2022-11-12T22:20:15.796Z,4.05
2022-11-12T22:22:17.329Z,4
2022-11-12T22:24:19.100Z,4.01
2022-11-12T22:26:20.997Z,4.02
2022-11-12T22:28:22.299Z,4.01
2022-11-12T22:30:23.799Z,4.02
2022-11-12T22:32:25.094Z,4.02
2022-11-12T22:34:26.393Z,4.02
2022-11-12T22:36:28.099Z,3.96
2022-11-12T22:38:29.653Z,3.96
2022-11-12T22:40:30.846Z,3.92
2022-11-12T22:42:32.810Z,3.98
2022-11-12T22:44:34.761Z,3.91
2022-11-12T22:46:35.816Z,3.95
2022-11-12T22:48:37.466Z,3.99
2022-11-12T22:50:38.506Z,3.95
2022-11-12T22:52:40.233Z,3.86
2022-11-12T22:54:41.697Z,3.9
2022-11-12T22:56:42.880Z,3.96
2022-11-12T22:58:44.293Z,3.95
2022-11-12T23:00:45.432Z,3.96
2022-11-12T23:02:47.765Z,4.03
2022-11-12T23:04:48.083Z,4.02
2022-11-12T23:06:49.160Z,4.02
2022-11-12T23:08:50.365Z,4.02
2022-11-12T23:10:51.605Z,3.99
2022-11-12T23:12:52.606Z,3.96
2022-11-12T23:14:54.255Z,3.96
2022-11-12T23:16:55.692Z,3.98
2022-11-12T23:17:39.569Z,3.93
2022-11-12T23:19:41.294Z,3.91
2022-11-12T23:21:42.945Z,3.86
2022-11-12T23:23:44.753Z,3.85
2022-11-12T23:25:45.948Z,3.88
2022-11-12T23:27:47.427Z,3.88
2022-11-12T23:29:48.987Z,3.85
2022-11-12T23:31:50.149Z,3.81
2022-11-12T23:33:51.583Z,3.84
2022-11-12T23:35:53.105Z,3.79
2022-11-12T23:37:54.774Z,3.75
2022-11-12T23:39:55.842Z,3.72
2022-11-12T23:41:57.618Z,3.73
2022-11-12T23:43:58.945Z,3.7
2022-11-12T23:45:59.938Z,3.59
2022-11-12T23:48:01.664Z,3.59
2022-11-12T23:50:02.792Z,3.56
2022-11-12T23:52:04.557Z,3.53
2022-11-12T23:54:05.705Z,3.54
2022-11-12T23:56:07.195Z,3.55
2022-11-12T23:58:08.891Z,3.48
